createdAt,value
2016-10-17T00:00:16.729Z,0
2016-10-17T00:01:27.248Z,0
2016-10-17T00:02:37.876Z,0
2016-10-17T00:03:48.451Z,0
2016-10-17T00:04:59.036Z,0
2016-10-17T00:06:09.567Z,0
2016-10-17T00:07:20.096Z,0
2016-10-17T00:09:02.695Z,0
2016-10-17T00:10:13.184Z,0
2016-10-17T00:11:23.690Z,0
2016-10-17T00:12:34.248Z,0
2016-10-17T00:13:44.777Z,0
2016-10-17T00:14:55.322Z,0
2016-10-17T00:16:05.867Z,0
2016-10-17T00:17:16.452Z,0
2016-10-17T00:18:27.031Z,0
2016-10-17T00:19:37.697Z,0
2016-10-17T00:20:48.284Z,0
2016-10-17T00:21:58.864Z,0
2016-10-17T00:23:09.426Z,0
2016-10-17T00:24:20.436Z,0
2016-10-17T00:25:31.102Z,0
2016-10-17T00:26:41.643Z,0
2016-10-17T00:27:52.193Z,0
2016-10-17T00:29:02.729Z,0
2016-10-17T00:30:13.217Z,0
2016-10-17T00:31:24.681Z,0
2016-10-17T00:32:35.262Z,0
2016-10-17T00:33:45.839Z,0
2016-10-17T00:34:56.388Z,0
2016-10-17T00:36:06.963Z,0
2016-10-17T00:37:17.673Z,0
2016-10-17T00:38:28.688Z,0
2016-10-17T00:39:39.234Z,0
2016-10-17T00:40:49.750Z,0
2016-10-17T00:42:00.335Z,0
2016-10-17T00:43:10.999Z,0
2016-10-17T00:44:21.510Z,0
2016-10-17T00:45:32.033Z,0
2016-10-17T00:46:42.796Z,0
2016-10-17T00:47:53.585Z,0
2016-10-17T00:49:04.543Z,0
2016-10-17T00:50:15.388Z,0
2016-10-17T00:51:26.200Z,0
2016-10-17T00:52:37.021Z,0
2016-10-17T00:53:48.152Z,0
2016-10-17T00:54:59.557Z,0
2016-10-17T00:56:10.357Z,0
2016-10-17T00:57:21.387Z,0
2016-10-17T00:58:32.500Z,0
2016-10-17T00:59:43.700Z,0
2016-10-17T01:00:54.572Z,0
2016-10-17T01:02:05.292Z,0
2016-10-17T01:03:16.101Z,0
2016-10-17T01:04:26.844Z,0
2016-10-17T01:05:37.449Z,0
2016-10-17T01:06:48.298Z,0
2016-10-17T01:07:58.965Z,0
2016-10-17T01:09:09.717Z,0
2016-10-17T01:10:20.489Z,0
2016-10-17T01:11:31.110Z,0
2016-10-17T01:12:41.840Z,0
2016-10-17T01:13:52.528Z,0
2016-10-17T01:15:03.194Z,0
2016-10-17T01:16:14.283Z,0
2016-10-17T01:17:24.945Z,0
2016-10-17T01:18:35.574Z,0
2016-10-17T01:19:46.129Z,0
2016-10-17T01:20:56.779Z,0
2016-10-17T01:22:07.391Z,0
2016-10-17T01:23:18.085Z,0
2016-10-17T01:24:29.359Z,0
2016-10-17T01:25:40.018Z,0
2016-10-17T01:26:50.653Z,0
2016-10-17T01:28:01.268Z,0
2016-10-17T01:29:11.823Z,0
2016-10-17T01:30:22.495Z,0
2016-10-17T01:31:33.446Z,0
2016-10-17T01:32:44.176Z,0
2016-10-17T01:33:54.740Z,0
2016-10-17T01:35:05.336Z,0
2016-10-17T01:36:48.118Z,0
2016-10-17T01:37:58.701Z,0
2016-10-17T01:39:09.270Z,0
2016-10-17T01:40:19.860Z,0
2016-10-17T01:41:30.523Z,0
2016-10-17T01:42:41.471Z,0
2016-10-17T01:43:52.382Z,0
2016-10-17T01:45:02.984Z,0
2016-10-17T01:46:13.528Z,0
2016-10-17T01:47:24.212Z,0
2016-10-17T01:48:34.773Z,0
2016-10-17T01:49:45.375Z,0
2016-10-17T01:50:55.920Z,0
2016-10-17T01:52:06.673Z,0
2016-10-17T01:53:17.331Z,0
2016-10-17T01:54:27.872Z,0
2016-10-17T01:55:38.853Z,0
2016-10-17T01:56:49.421Z,0
2016-10-17T01:57:59.992Z,0
2016-10-17T01:59:10.658Z,0
2016-10-17T02:00:21.635Z,0
2016-10-17T02:01:32.217Z,0
2016-10-17T02:02:42.777Z,0
2016-10-17T02:03:53.443Z,0
2016-10-17T02:05:04.277Z,0
2016-10-17T02:06:14.830Z,0
2016-10-17T02:07:25.441Z,0
2016-10-17T02:08:36.129Z,0
2016-10-17T02:09:46.811Z,0
2016-10-17T02:10:57.462Z,0
2016-10-17T02:12:08.224Z,0
2016-10-17T02:13:19.281Z,0
2016-10-17T02:14:29.938Z,0
2016-10-17T02:15:40.714Z,0
2016-10-17T02:16:51.407Z,0
2016-10-17T02:18:02.049Z,0
2016-10-17T02:19:12.640Z,0
2016-10-17T02:20:23.181Z,0
2016-10-17T02:21:33.709Z,0
2016-10-17T02:22:44.327Z,0
2016-10-17T02:23:55.017Z,0
2016-10-17T02:25:05.778Z,0
2016-10-17T02:26:16.386Z,0
2016-10-17T02:27:26.994Z,0
2016-10-17T02:28:37.686Z,0
2016-10-17T02:29:48.269Z,0
2016-10-17T02:30:58.957Z,0
2016-10-17T02:32:09.740Z,0
2016-10-17T02:33:20.505Z,0
2016-10-17T02:34:31.221Z,0
2016-10-17T02:35:41.909Z,0
2016-10-17T02:36:52.531Z,0
2016-10-17T02:38:03.240Z,0
2016-10-17T02:39:13.884Z,0
2016-10-17T02:40:24.643Z,0
2016-10-17T02:41:35.237Z,0
2016-10-17T02:42:45.758Z,0
2016-10-17T02:43:56.288Z,0
2016-10-17T02:45:06.840Z,0
2016-10-17T02:46:17.523Z,0
2016-10-17T02:47:28.091Z,0
2016-10-17T02:48:38.631Z,0
2016-10-17T02:49:49.179Z,0
2016-10-17T02:50:59.730Z,0
2016-10-17T02:52:10.358Z,0
2016-10-17T02:53:20.890Z,0
2016-10-17T02:54:31.415Z,0
2016-10-17T02:55:42.446Z,0
2016-10-17T02:56:52.966Z,0
2016-10-17T02:58:03.644Z,0
2016-10-17T02:59:14.203Z,0
2016-10-17T03:00:24.782Z,0
2016-10-17T03:01:35.281Z,0
2016-10-17T03:02:45.786Z,0
2016-10-17T03:03:56.349Z,0
2016-10-17T03:05:06.872Z,0
2016-10-17T03:06:17.325Z,0
2016-10-17T03:07:28.316Z,0
2016-10-17T03:08:38.826Z,0
2016-10-17T03:09:49.433Z,0
2016-10-17T03:10:59.978Z,0
2016-10-17T03:12:10.469Z,0
2016-10-17T03:13:21.005Z,0
2016-10-17T03:14:31.545Z,0
2016-10-17T03:15:42.160Z,0
2016-10-17T03:16:52.632Z,0
2016-10-17T03:18:03.183Z,0
2016-10-17T03:19:17.210Z,0
2016-10-17T03:20:27.716Z,0
2016-10-17T03:21:38.312Z,0
2016-10-17T03:22:48.837Z,0
2016-10-17T03:23:59.338Z,0
2016-10-17T03:25:09.832Z,0
2016-10-17T03:26:20.352Z,0
2016-10-17T03:27:30.973Z,0
2016-10-17T03:28:41.512Z,0
2016-10-17T03:29:52.023Z,0
2016-10-17T03:31:02.513Z,0
2016-10-17T03:32:13.006Z,0
2016-10-17T03:33:24.088Z,0
2016-10-17T03:34:34.594Z,0
2016-10-17T03:35:45.089Z,0
2016-10-17T03:36:55.568Z,0
2016-10-17T03:38:06.556Z,0
2016-10-17T03:39:17.030Z,0
2016-10-17T03:40:28.053Z,0
2016-10-17T03:41:38.525Z,0
2016-10-17T03:42:49.011Z,0
2016-10-17T03:44:00.000Z,0
2016-10-17T03:45:10.635Z,0
2016-10-17T03:46:21.151Z,0
2016-10-17T03:47:31.647Z,0
2016-10-17T03:48:42.175Z,0
2016-10-17T03:49:52.703Z,0
2016-10-17T03:51:03.281Z,0
2016-10-17T03:52:13.813Z,0
2016-10-17T03:53:24.313Z,0
2016-10-17T03:54:34.815Z,0
2016-10-17T03:55:45.296Z,0
2016-10-17T03:56:55.818Z,0
2016-10-17T03:58:06.336Z,0
2016-10-17T03:59:16.829Z,0
2016-10-17T04:00:27.401Z,0
2016-10-17T04:01:37.887Z,0
2016-10-17T04:02:48.533Z,0
2016-10-17T04:03:59.564Z,0
2016-10-17T04:05:10.067Z,0
2016-10-17T04:06:20.552Z,0
2016-10-17T04:07:31.009Z,0
2016-10-17T04:08:42.191Z,0
2016-10-17T04:09:52.706Z,0
2016-10-17T04:11:03.247Z,0
2016-10-17T04:12:13.739Z,0
2016-10-17T04:13:24.223Z,0
2016-10-17T04:14:34.703Z,0
2016-10-17T04:15:45.217Z,0
2016-10-17T04:16:56.233Z,0
2016-10-17T04:18:06.724Z,0
2016-10-17T04:19:17.220Z,0
2016-10-17T04:20:27.783Z,0
2016-10-17T04:21:38.266Z,0
2016-10-17T04:22:48.794Z,0
2016-10-17T04:23:59.256Z,0
2016-10-17T04:25:09.784Z,0
2016-10-17T04:26:20.436Z,0
2016-10-17T04:27:30.958Z,0
2016-10-17T04:28:41.454Z,0
2016-10-17T04:29:51.938Z,0
2016-10-17T04:31:02.414Z,0
2016-10-17T04:32:12.986Z,0
2016-10-17T04:33:24.018Z,0
2016-10-17T04:34:34.529Z,0
2016-10-17T04:35:45.032Z,0
2016-10-17T04:36:55.482Z,0
2016-10-17T04:38:06.089Z,0
2016-10-17T04:39:17.036Z,0
2016-10-17T04:40:27.569Z,0
2016-10-17T04:41:38.079Z,0
2016-10-17T04:42:48.577Z,0
2016-10-17T04:43:59.561Z,0
2016-10-17T04:45:10.530Z,0
2016-10-17T04:46:21.044Z,0
2016-10-17T04:47:31.528Z,0
2016-10-17T04:48:42.029Z,0
2016-10-17T04:49:53.109Z,0
2016-10-17T04:51:03.592Z,0
2016-10-17T04:52:14.062Z,0
2016-10-17T04:53:24.625Z,0
2016-10-17T04:54:35.156Z,0
2016-10-17T04:55:45.716Z,0
2016-10-17T04:56:56.215Z,0
2016-10-17T04:58:06.767Z,0
2016-10-17T04:59:17.754Z,0
2016-10-17T05:00:28.284Z,0
2016-10-17T05:01:38.877Z,0
2016-10-17T05:02:49.401Z,0
2016-10-17T05:03:59.958Z,0
2016-10-17T05:05:10.475Z,0
2016-10-17T05:06:20.955Z,0
2016-10-17T05:07:31.559Z,0
2016-10-17T05:08:42.057Z,0
2016-10-17T05:09:52.508Z,0
2016-10-17T05:11:02.984Z,0
2016-10-17T05:12:13.471Z,0
2016-10-17T05:13:24.109Z,0
2016-10-17T05:14:34.613Z,0
2016-10-17T05:15:45.105Z,0
2016-10-17T05:16:55.602Z,0
2016-10-17T05:18:06.610Z,0
2016-10-17T05:19:17.136Z,0
2016-10-17T05:20:27.648Z,0
2016-10-17T05:21:38.209Z,0
2016-10-17T05:22:48.696Z,0
2016-10-17T05:23:59.253Z,0
2016-10-17T05:25:09.914Z,0
2016-10-17T05:26:20.448Z,0
2016-10-17T05:27:30.957Z,0
2016-10-17T05:28:41.480Z,0
2016-10-17T05:29:51.978Z,0
2016-10-17T05:31:02.598Z,0
2016-10-17T05:32:13.138Z,0
2016-10-17T05:33:23.673Z,0
2016-10-17T05:34:34.216Z,0
2016-10-17T05:35:44.753Z,0
2016-10-17T05:36:55.415Z,0
2016-10-17T05:38:05.972Z,0
2016-10-17T05:39:16.475Z,0
2016-10-17T05:40:27.041Z,0
2016-10-17T05:41:37.595Z,0
2016-10-17T05:42:48.148Z,0
2016-10-17T05:43:58.697Z,0
2016-10-17T05:45:09.258Z,0
2016-10-17T05:46:19.788Z,0
2016-10-17T05:47:30.276Z,0
2016-10-17T05:48:40.909Z,0
2016-10-17T05:49:51.448Z,0
2016-10-17T05:51:02.001Z,0
2016-10-17T05:52:12.523Z,0
2016-10-17T05:53:23.026Z,0
2016-10-17T05:54:34.192Z,0
2016-10-17T05:55:44.760Z,0
2016-10-17T05:56:55.257Z,0
2016-10-17T05:58:05.779Z,0
2016-10-17T05:59:16.283Z,0
2016-10-17T06:00:26.886Z,0
2016-10-17T06:01:37.419Z,0
2016-10-17T06:02:48.004Z,0
2016-10-17T06:03:58.505Z,0
2016-10-17T06:05:09.533Z,0
2016-10-17T06:06:20.105Z,0
2016-10-17T06:07:30.621Z,0
2016-10-17T06:08:41.134Z,0
2016-10-17T06:09:51.677Z,0
2016-10-17T06:11:02.233Z,0
2016-10-17T06:12:12.847Z,0
2016-10-17T06:13:23.412Z,0
2016-10-17T06:14:33.924Z,0
2016-10-17T06:15:44.460Z,0
2016-10-17T06:16:55.011Z,0
2016-10-17T06:18:05.666Z,0
2016-10-17T06:19:16.203Z,0
2016-10-17T06:20:27.247Z,0
2016-10-17T06:21:37.803Z,0
2016-10-17T06:22:48.370Z,0
2016-10-17T06:23:58.890Z,0
2016-10-17T06:25:09.436Z,0
2016-10-17T06:26:19.968Z,0
2016-10-17T06:27:30.506Z,0
2016-10-17T06:28:41.056Z,0
2016-10-17T06:29:51.681Z,0
2016-10-17T06:31:02.212Z,0
2016-10-17T06:32:12.722Z,0
2016-10-17T06:33:23.266Z,0
2016-10-17T06:34:33.815Z,0
2016-10-17T06:35:44.428Z,0
2016-10-17T06:36:54.968Z,0
2016-10-17T06:38:05.523Z,0
2016-10-17T06:39:16.069Z,0
2016-10-17T06:40:26.584Z,0
2016-10-17T06:41:37.268Z,0
2016-10-17T06:42:47.824Z,0
2016-10-17T06:43:58.374Z,0
2016-10-17T06:45:08.937Z,0
2016-10-17T06:46:19.457Z,0
2016-10-17T06:47:30.007Z,0
2016-10-17T06:48:40.561Z,0
2016-10-17T06:49:51.106Z,0
2016-10-17T06:51:01.658Z,0
2016-10-17T06:52:12.175Z,0
2016-10-17T06:53:22.822Z,0
2016-10-17T06:54:33.385Z,0
2016-10-17T06:55:43.916Z,0
2016-10-17T06:56:54.492Z,0
2016-10-17T06:58:05.081Z,0
2016-10-17T06:59:15.789Z,0
2016-10-17T07:00:26.365Z,0
2016-10-17T07:01:36.933Z,0
2016-10-17T07:02:47.505Z,0
2016-10-17T07:03:58.077Z,0
2016-10-17T07:05:08.747Z,0
2016-10-17T07:06:19.309Z,0
2016-10-17T07:07:29.888Z,0
2016-10-17T07:08:40.462Z,0
2016-10-17T07:09:51.035Z,0
2016-10-17T07:11:01.617Z,0
2016-10-17T07:12:12.196Z,0
2016-10-17T07:13:22.795Z,0
2016-10-17T07:14:33.355Z,0
2016-10-17T07:15:43.941Z,0
2016-10-17T07:16:54.611Z,0
2016-10-17T07:18:05.178Z,0
2016-10-17T07:19:15.744Z,0
2016-10-17T07:20:26.806Z,0
2016-10-17T07:21:37.403Z,0
2016-10-17T07:22:48.067Z,0
2016-10-17T07:23:58.635Z,0
2016-10-17T07:25:09.216Z,0
2016-10-17T07:26:19.786Z,0
2016-10-17T07:27:30.352Z,0
2016-10-17T07:28:41.067Z,0
2016-10-17T07:29:51.589Z,0
2016-10-17T07:31:02.120Z,0
2016-10-17T07:32:12.693Z,0
2016-10-17T07:33:23.251Z,0
2016-10-17T07:34:34.257Z,0
2016-10-17T07:35:44.768Z,0
2016-10-17T07:36:55.323Z,0
2016-10-17T07:38:05.848Z,0
2016-10-17T07:39:16.918Z,0
2016-10-17T07:40:27.786Z,0
2016-10-17T07:41:38.321Z,0
2016-10-17T07:42:48.873Z,0
2016-10-17T07:43:59.422Z,0
2016-10-17T07:45:09.933Z,0
2016-10-17T07:46:20.543Z,0
2016-10-17T07:47:31.598Z,0
2016-10-17T07:48:42.145Z,0
2016-10-17T07:49:52.717Z,0
2016-10-17T07:51:03.703Z,0
2016-10-17T07:52:14.227Z,0
2016-10-17T07:53:24.781Z,0
2016-10-17T07:54:35.353Z,0
2016-10-17T07:55:45.900Z,0
2016-10-17T07:56:56.427Z,0
2016-10-17T07:58:07.123Z,0
2016-10-17T07:59:17.626Z,0
2016-10-17T08:00:28.140Z,0
2016-10-17T08:01:38.650Z,0
2016-10-17T08:02:49.179Z,0
2016-10-17T08:03:59.844Z,0
2016-10-17T08:05:10.367Z,0
2016-10-17T08:06:20.927Z,0
2016-10-17T08:07:31.442Z,0
2016-10-17T08:08:41.971Z,0
2016-10-17T08:09:52.670Z,0
2016-10-17T08:11:03.186Z,0
2016-10-17T08:12:13.741Z,0
2016-10-17T08:13:24.259Z,0
2016-10-17T08:14:34.774Z,0
2016-10-17T08:15:45.292Z,0
2016-10-17T08:16:55.842Z,0
2016-10-17T08:18:06.348Z,0
2016-10-17T08:19:16.937Z,0
2016-10-17T08:20:27.556Z,0
2016-10-17T08:21:38.176Z,0
2016-10-17T08:22:48.725Z,0
2016-10-17T08:23:59.293Z,0
2016-10-17T08:25:09.827Z,0
2016-10-17T08:26:20.385Z,0
2016-10-17T08:27:31.026Z,0
2016-10-17T08:28:41.550Z,0
2016-10-17T08:29:52.121Z,0
2016-10-17T08:31:02.638Z,0
2016-10-17T08:32:13.157Z,0
2016-10-17T08:33:23.820Z,0
2016-10-17T08:34:34.369Z,0
2016-10-17T08:35:44.924Z,0
2016-10-17T08:36:55.441Z,0
2016-10-17T08:38:05.979Z,0
2016-10-17T08:39:16.533Z,5
2016-10-17T08:40:27.080Z,5
2016-10-17T08:41:37.635Z,0
2016-10-17T08:42:48.160Z,0
2016-10-17T08:43:58.673Z,5
2016-10-17T08:45:09.263Z,5
2016-10-17T08:46:19.750Z,10
2016-10-17T08:47:30.316Z,10
2016-10-17T08:48:40.855Z,15
2016-10-17T08:49:51.430Z,15
2016-10-17T08:51:02.045Z,20
2016-10-17T08:52:12.578Z,20
2016-10-17T08:53:23.126Z,15
2016-10-17T08:54:33.691Z,15
2016-10-17T08:55:44.221Z,15
2016-10-17T08:56:54.887Z,15
2016-10-17T08:58:05.421Z,15
2016-10-17T08:59:15.965Z,15
2016-10-17T09:00:26.505Z,15
2016-10-17T09:01:37.015Z,20
2016-10-17T09:02:47.623Z,25
2016-10-17T09:03:58.167Z,30
2016-10-17T09:05:08.741Z,30
2016-10-17T09:07:10.253Z,35
2016-10-17T09:08:21.018Z,40
2016-10-17T09:09:31.556Z,50
2016-10-17T09:10:42.121Z,55
2016-10-17T09:11:52.654Z,60
2016-10-17T09:13:03.149Z,65
2016-10-17T09:14:13.790Z,65
2016-10-17T09:15:24.274Z,85
2016-10-17T09:16:34.823Z,115
2016-10-17T09:17:45.368Z,145
2016-10-17T09:18:55.855Z,165
2016-10-17T09:20:06.514Z,170
2016-10-17T09:21:17.020Z,175
2016-10-17T09:22:27.732Z,175
2016-10-17T09:23:38.268Z,175
2016-10-17T09:24:48.809Z,180
2016-10-17T09:25:59.418Z,155
2016-10-17T09:27:09.931Z,140
2016-10-17T09:28:21.004Z,125
2016-10-17T09:29:31.510Z,115
2016-10-17T09:30:42.034Z,115
2016-10-17T09:31:52.587Z,125
2016-10-17T09:33:03.103Z,120
2016-10-17T09:34:13.684Z,130
2016-10-17T09:35:24.240Z,145
2016-10-17T09:36:34.744Z,175
2016-10-17T09:37:45.372Z,180
2016-10-17T09:38:55.892Z,180
2016-10-17T09:40:06.446Z,185
2016-10-17T09:41:16.927Z,185
2016-10-17T09:42:27.452Z,200
2016-10-17T09:43:38.093Z,205
2016-10-17T09:44:48.636Z,195
2016-10-17T09:45:59.186Z,215
2016-10-17T09:47:09.670Z,250
2016-10-17T09:48:20.143Z,265
2016-10-17T09:49:30.706Z,255
2016-10-17T09:50:41.180Z,305
2016-10-17T09:51:51.684Z,390
2016-10-17T09:53:02.629Z,305
2016-10-17T09:54:13.203Z,390
2016-10-17T09:55:24.264Z,390
2016-10-17T09:56:34.748Z,300
2016-10-17T09:57:45.251Z,390
2016-10-17T09:58:55.773Z,595
2016-10-17T10:00:06.259Z,395
2016-10-17T10:01:16.871Z,865
2016-10-17T10:02:27.353Z,425
2016-10-17T10:03:37.806Z,330
2016-10-17T10:04:48.314Z,280
2016-10-17T10:05:58.821Z,300
2016-10-17T10:07:09.390Z,585
2016-10-17T10:08:19.903Z,575
2016-10-17T10:09:30.395Z,800
2016-10-17T10:10:40.941Z,560
2016-10-17T10:11:51.461Z,640
2016-10-17T10:13:01.961Z,990
2016-10-17T10:14:12.456Z,465
2016-10-17T10:15:22.915Z,440
2016-10-17T10:16:33.506Z,330
2016-10-17T10:17:44.059Z,400
2016-10-17T10:18:54.716Z,365
2016-10-17T10:20:05.290Z,395
2016-10-17T10:21:15.868Z,440
2016-10-17T10:22:26.447Z,420
2016-10-17T10:23:37.024Z,450
2016-10-17T10:24:47.704Z,520
2016-10-17T10:25:58.322Z,500
2016-10-17T10:27:08.902Z,515
2016-10-17T10:28:19.479Z,520
2016-10-17T10:29:30.055Z,485
2016-10-17T10:30:40.727Z,500
2016-10-17T10:31:51.312Z,495
2016-10-17T10:33:01.892Z,565
2016-10-17T10:34:12.499Z,610
2016-10-17T10:35:23.088Z,680
2016-10-17T10:36:33.662Z,635
2016-10-17T10:37:44.323Z,765
2016-10-17T10:38:54.898Z,825
2016-10-17T10:40:05.972Z,945
2016-10-17T10:41:16.542Z,735
2016-10-17T10:42:27.256Z,735
2016-10-17T10:43:37.838Z,1230
2016-10-17T10:44:48.408Z,1465
2016-10-17T10:45:58.988Z,1450
2016-10-17T10:47:09.563Z,1415
2016-10-17T10:48:20.233Z,1410
2016-10-17T10:49:30.828Z,985
2016-10-17T10:50:41.442Z,1370
2016-10-17T10:51:51.978Z,1330
2016-10-17T10:53:02.479Z,1405
2016-10-17T10:54:13.084Z,1455
2016-10-17T10:55:23.585Z,1375
2016-10-17T10:56:34.124Z,1350
2016-10-17T10:57:44.594Z,1450
2016-10-17T10:58:55.075Z,1460
2016-10-17T11:00:06.641Z,1430
2016-10-17T11:01:17.104Z,1530
2016-10-17T11:02:27.637Z,1580
2016-10-17T11:03:38.142Z,1605
2016-10-17T11:04:48.626Z,1635
2016-10-17T11:05:59.241Z,1735
2016-10-17T11:07:09.754Z,1710
2016-10-17T11:08:20.236Z,1705
2016-10-17T11:09:30.728Z,1665
2016-10-17T11:10:41.267Z,1710
2016-10-17T11:11:51.881Z,1615
2016-10-17T11:13:02.386Z,1580
2016-10-17T11:14:13.424Z,1675
2016-10-17T11:15:23.947Z,1690
2016-10-17T11:16:34.472Z,1680
2016-10-17T11:17:45.210Z,1465
2016-10-17T11:18:55.722Z,1590
2016-10-17T11:20:06.285Z,1745
2016-10-17T11:21:16.810Z,1700
2016-10-17T11:22:27.271Z,1690
2016-10-17T11:23:37.866Z,1780
2016-10-17T11:24:48.446Z,1715
2016-10-17T11:25:59.037Z,1775
2016-10-17T11:27:09.628Z,1885
2016-10-17T11:28:20.218Z,1670
2016-10-17T11:29:30.920Z,1705
2016-10-17T11:30:41.539Z,1845
2016-10-17T11:31:52.126Z,1860
2016-10-17T11:33:02.713Z,1850
2016-10-17T11:34:13.318Z,1750
2016-10-17T11:35:24.012Z,1860
2016-10-17T11:36:35.109Z,1935
2016-10-17T11:37:45.700Z,1805
2016-10-17T11:38:56.289Z,1855
2016-10-17T11:40:06.883Z,1875
2016-10-17T11:41:17.506Z,1850
2016-10-17T11:42:28.103Z,1830
2016-10-17T11:43:38.689Z,1785
2016-10-17T11:44:49.281Z,1810
2016-10-17T11:46:00.374Z,1845
2016-10-17T11:47:11.060Z,1855
2016-10-17T11:48:21.680Z,1880
2016-10-17T11:49:32.272Z,1890
2016-10-17T11:50:42.852Z,1915
2016-10-17T11:51:53.458Z,1910
2016-10-17T11:53:04.190Z,1840
2016-10-17T11:54:14.797Z,1885
2016-10-17T11:55:25.384Z,1900
2016-10-17T11:56:35.971Z,1875
2016-10-17T11:57:46.565Z,1885
2016-10-17T11:58:57.095Z,1895
2016-10-17T12:00:07.644Z,1860
2016-10-17T12:01:18.269Z,1900
2016-10-17T12:02:28.807Z,1910
2016-10-17T12:03:39.332Z,1960
2016-10-17T12:04:50.086Z,1895
2016-10-17T12:06:00.609Z,1870
2016-10-17T12:07:11.164Z,1750
2016-10-17T12:08:21.708Z,1725
2016-10-17T12:09:32.326Z,1590
2016-10-17T12:10:42.938Z,1830
2016-10-17T12:11:53.504Z,1870
2016-10-17T12:13:04.095Z,1935
2016-10-17T12:14:14.663Z,2020
2016-10-17T12:15:25.226Z,1955
2016-10-17T12:16:35.911Z,1950
2016-10-17T12:17:46.463Z,1970
2016-10-17T12:18:57.068Z,1970
2016-10-17T12:20:07.653Z,1840
2016-10-17T12:21:18.214Z,1955
2016-10-17T12:22:28.886Z,2045
2016-10-17T12:23:39.459Z,2025
2016-10-17T12:24:50.018Z,1980
2016-10-17T12:26:00.583Z,2060
2016-10-17T12:27:11.168Z,2080
2016-10-17T12:28:21.803Z,2050
2016-10-17T12:29:32.285Z,2100
2016-10-17T12:30:42.860Z,2140
2016-10-17T12:31:53.452Z,2095
2016-10-17T12:33:04.064Z,2030
2016-10-17T12:34:14.826Z,2150
2016-10-17T12:35:25.910Z,2140
2016-10-17T12:36:36.540Z,2055
2016-10-17T12:37:47.136Z,2105
2016-10-17T12:38:57.729Z,2110
2016-10-17T12:40:08.333Z,2115
2016-10-17T12:41:18.930Z,2100
2016-10-17T12:42:29.530Z,2140
2016-10-17T12:43:40.124Z,2125
2016-10-17T12:44:50.718Z,2130
2016-10-17T12:46:01.417Z,2115
2016-10-17T12:47:12.006Z,2015
2016-10-17T12:48:22.587Z,1990
2016-10-17T12:49:33.177Z,2065
2016-10-17T12:50:43.770Z,2185
2016-10-17T12:51:54.953Z,2195
2016-10-17T12:53:05.536Z,2185
2016-10-17T12:54:16.133Z,2265
2016-10-17T12:55:26.720Z,2245
2016-10-17T12:56:37.312Z,2160
2016-10-17T12:57:48.090Z,2155
2016-10-17T12:58:59.197Z,2275
2016-10-17T13:00:09.792Z,2190
2016-10-17T13:01:20.395Z,2225
2016-10-17T13:02:31.002Z,2175
2016-10-17T13:03:41.690Z,2250
2016-10-17T13:04:52.295Z,2265
2016-10-17T13:06:02.826Z,2275
2016-10-17T13:07:13.332Z,2260
2016-10-17T13:08:23.845Z,2095
2016-10-17T13:09:34.479Z,2125
2016-10-17T13:10:44.988Z,2345
2016-10-17T13:11:55.471Z,2285
2016-10-17T13:13:05.998Z,2310
2016-10-17T13:14:48.331Z,2255
2016-10-17T13:15:58.869Z,2230
2016-10-17T13:17:09.408Z,2240
2016-10-17T13:18:19.917Z,2275
2016-10-17T13:19:30.484Z,2180
2016-10-17T13:20:41.105Z,2220
2016-10-17T13:21:51.631Z,2300
2016-10-17T13:23:02.173Z,2275
2016-10-17T13:24:12.682Z,2265
2016-10-17T13:25:23.234Z,2195
2016-10-17T13:26:33.905Z,2240
2016-10-17T13:27:44.849Z,2285
2016-10-17T13:28:55.341Z,2370
2016-10-17T13:30:05.870Z,2360
2016-10-17T13:31:16.384Z,2270
2016-10-17T13:32:27.023Z,2330
2016-10-17T13:33:37.513Z,2295
2016-10-17T13:34:48.042Z,2315
2016-10-17T13:35:58.588Z,2460
2016-10-17T13:37:09.085Z,2320
2016-10-17T13:38:19.701Z,2360
2016-10-17T13:39:30.215Z,2425
2016-10-17T13:52:51.995Z,2295
2016-10-17T13:54:02.527Z,2365
2016-10-17T13:55:13.052Z,2295
2016-10-17T13:56:23.592Z,2250
2016-10-17T13:57:34.060Z,2305
2016-10-17T13:58:44.695Z,2245
2016-10-17T13:59:55.221Z,2365
2016-10-17T14:01:05.712Z,2330
2016-10-17T14:02:16.293Z,2305
2016-10-17T14:03:26.817Z,2395
2016-10-17T14:04:37.350Z,2360
2016-10-17T14:05:47.843Z,2315
2016-10-17T14:06:58.342Z,2310
2016-10-17T14:08:08.894Z,2275
2016-10-17T14:09:19.862Z,2285
2016-10-17T14:10:30.517Z,2335
2016-10-17T14:11:41.060Z,2375
2016-10-17T14:12:51.597Z,2360
2016-10-17T14:14:02.146Z,2360
2016-10-17T14:15:12.698Z,2350
2016-10-17T14:16:23.229Z,2425
2016-10-17T14:17:33.771Z,2305
2016-10-17T14:18:44.289Z,2355
2016-10-17T14:19:54.807Z,2370
2016-10-17T14:21:05.341Z,2400
2016-10-17T14:22:16.009Z,2345
2016-10-17T14:23:26.551Z,2180
2016-10-17T14:24:37.052Z,2175
2016-10-17T14:25:47.548Z,2400
2016-10-17T14:26:58.072Z,2410
2016-10-17T14:28:09.068Z,2410
2016-10-17T14:29:19.567Z,2365
2016-10-17T14:30:30.089Z,2345
2016-10-17T14:31:40.584Z,2295
2016-10-17T14:32:51.076Z,2275
2016-10-17T14:34:01.707Z,2375
2016-10-17T14:35:12.223Z,2290
2016-10-17T14:36:22.745Z,2405
2016-10-17T14:37:33.258Z,2355
2016-10-17T14:38:43.769Z,2325
2016-10-17T14:39:54.268Z,2225
2016-10-17T14:41:04.819Z,2170
2016-10-17T14:42:15.811Z,2250
2016-10-17T14:43:26.335Z,2250
2016-10-17T14:44:36.878Z,2335
2016-10-17T14:45:47.572Z,2305
2016-10-17T14:46:58.064Z,2215
2016-10-17T14:48:08.601Z,2165
2016-10-17T14:49:19.180Z,2285
2016-10-17T14:50:29.748Z,2275
2016-10-17T14:51:40.401Z,2285
2016-10-17T14:52:50.921Z,2360
2016-10-17T14:54:01.487Z,2340
2016-10-17T14:55:11.980Z,2305
2016-10-17T14:56:22.524Z,2325
2016-10-17T14:57:33.190Z,2250
2016-10-17T14:58:43.744Z,2370
2016-10-17T14:59:54.257Z,2365
2016-10-17T15:01:04.783Z,2235
2016-10-17T15:02:15.778Z,2210
2016-10-17T15:03:26.734Z,2230
2016-10-17T15:04:37.218Z,2290
2016-10-17T15:05:47.693Z,2300
2016-10-17T15:06:58.203Z,2240
2016-10-17T15:08:08.732Z,2300
2016-10-17T15:09:19.367Z,2255
2016-10-17T15:10:29.921Z,2195
2016-10-17T15:11:40.462Z,2160
2016-10-17T15:12:50.960Z,2220
2016-10-17T15:14:01.538Z,2300
2016-10-17T15:15:12.549Z,2185
2016-10-17T15:16:23.052Z,2140
2016-10-17T15:17:33.582Z,2125
2016-10-17T15:18:44.634Z,2155
2016-10-17T15:19:55.122Z,2125
2016-10-17T15:21:06.089Z,2270
2016-10-17T15:22:16.571Z,2075
2016-10-17T15:23:27.043Z,2115
2016-10-17T15:24:37.517Z,2110
2016-10-17T15:25:47.998Z,2060
2016-10-17T15:26:58.581Z,2030
2016-10-17T15:28:09.053Z,2025
2016-10-17T15:29:20.021Z,2090
2016-10-17T15:30:30.550Z,1995
2016-10-17T15:31:41.034Z,2015
2016-10-17T15:32:51.507Z,1955
2016-10-17T15:34:01.986Z,1935
2016-10-17T15:35:12.474Z,2065
2016-10-17T15:36:22.948Z,2085
2016-10-17T15:37:33.427Z,2080
2016-10-17T15:38:44.050Z,2165
2016-10-17T15:39:54.531Z,2135
2016-10-17T15:41:05.000Z,2140
2016-10-17T15:42:15.477Z,1960
2016-10-17T15:43:25.955Z,1815
2016-10-17T15:44:36.541Z,1820
2016-10-17T15:45:47.020Z,2020
2016-10-17T15:46:57.497Z,1965
2016-10-17T15:48:07.987Z,1930
2016-10-17T15:49:18.461Z,1855
2016-10-17T15:50:28.934Z,2000
2016-10-17T15:51:39.414Z,1970
2016-10-17T15:52:49.901Z,1880
2016-10-17T15:54:00.870Z,1935
2016-10-17T15:55:11.350Z,1850
2016-10-17T15:56:21.936Z,1965
2016-10-17T15:57:32.419Z,1875
2016-10-17T15:58:42.883Z,2015
2016-10-17T15:59:53.404Z,2000
2016-10-17T16:01:03.915Z,2030
2016-10-17T16:02:14.408Z,1975
2016-10-17T16:03:24.872Z,1990
2016-10-17T16:04:35.361Z,2010
2016-10-17T16:05:45.851Z,1985
2016-10-17T16:06:56.333Z,1935
2016-10-17T16:08:06.908Z,1910
2016-10-17T16:09:17.385Z,1945
2016-10-17T16:10:27.902Z,1900
2016-10-17T16:11:48.643Z,1970
2016-10-17T16:12:59.112Z,1920
2016-10-17T16:14:09.599Z,1965
2016-10-17T16:15:20.081Z,1885
2016-10-17T16:16:30.564Z,1875
2016-10-17T16:17:41.041Z,1925
2016-10-17T16:18:51.612Z,1905
2016-10-17T16:20:02.600Z,1880
2016-10-17T16:21:13.078Z,1920
2016-10-17T16:22:24.038Z,1885
2016-10-17T16:23:34.571Z,1835
2016-10-17T16:24:45.155Z,1830
2016-10-17T16:25:55.641Z,1830
2016-10-17T16:27:06.278Z,1830
2016-10-17T16:28:16.858Z,1895
2016-10-17T16:29:27.429Z,1805
2016-10-17T16:30:37.996Z,1760
2016-10-17T16:31:48.556Z,1760
2016-10-17T16:32:59.153Z,1775
2016-10-17T16:34:09.726Z,1795
2016-10-17T16:35:20.261Z,1755
2016-10-17T16:36:30.964Z,1730
2016-10-17T16:37:42.021Z,1635
2016-10-17T16:38:52.540Z,1605
2016-10-17T16:40:03.064Z,1670
2016-10-17T16:41:13.699Z,1740
2016-10-17T16:42:24.266Z,1800
2016-10-17T16:43:34.842Z,1760
2016-10-17T16:44:45.423Z,1850
2016-10-17T16:45:56.020Z,1955
2016-10-17T16:47:06.617Z,1945
2016-10-17T16:48:17.172Z,1940
2016-10-17T16:49:27.728Z,1860
2016-10-17T16:50:38.294Z,1825
2016-10-17T16:51:48.864Z,1835